sensor_id;sensor_type;location;lat;lon;timestamp;temperature;humidity
66928;DHT22;59882;45.624;11.698;2023-01-04T00:01:04;9.20;84.50
66928;DHT22;59882;45.624;11.698;2023-01-04T00:03:30;9.10;83.70
66928;DHT22;59882;45.624;11.698;2023-01-04T00:06:01;9.10;83.10
66928;DHT22;59882;45.624;11.698;2023-01-04T00:08:28;8.90;83.00
66928;DHT22;59882;45.624;11.698;2023-01-04T00:11:00;8.90;83.30
66928;DHT22;59882;45.624;11.698;2023-01-04T00:13:26;8.80;83.50
66928;DHT22;59882;45.624;11.698;2023-01-04T00:15:52;8.80;83.50
66928;DHT22;59882;45.624;11.698;2023-01-04T00:18:17;8.80;83.80
66928;DHT22;59882;45.624;11.698;2023-01-04T00:20:43;8.70;83.70
66928;DHT22;59882;45.624;11.698;2023-01-04T00:23:08;8.70;83.90
66928;DHT22;59882;45.624;11.698;2023-01-04T00:25:37;8.70;84.00
66928;DHT22;59882;45.624;11.698;2023-01-04T00:28:03;8.60;83.80
66928;DHT22;59882;45.624;11.698;2023-01-04T00:30:28;8.60;83.90
66928;DHT22;59882;45.624;11.698;2023-01-04T00:32:56;8.60;83.90
66928;DHT22;59882;45.624;11.698;2023-01-04T00:35:22;8.60;84.00
66928;DHT22;59882;45.624;11.698;2023-01-04T00:37:48;8.60;83.90
66928;DHT22;59882;45.624;11.698;2023-01-04T00:40:13;8.60;83.80
66928;DHT22;59882;45.624;11.698;2023-01-04T00:42:39;8.60;83.70
66928;DHT22;59882;45.624;11.698;2023-01-04T00:45:05;8.50;83.30
66928;DHT22;59882;45.624;11.698;2023-01-04T00:47:31;8.40;83.20
66928;DHT22;59882;45.624;11.698;2023-01-04T00:49:56;8.40;83.40
66928;DHT22;59882;45.624;11.698;2023-01-04T00:52:22;8.40;83.40
66928;DHT22;59882;45.624;11.698;2023-01-04T00:54:47;8.30;83.00
66928;DHT22;59882;45.624;11.698;2023-01-04T00:57:13;8.30;83.10
66928;DHT22;59882;45.624;11.698;2023-01-04T00:59:38;8.20;83.40
66928;DHT22;59882;45.624;11.698;2023-01-04T01:02:04;8.10;83.40
66928;DHT22;59882;45.624;11.698;2023-01-04T01:04:30;8.10;83.40
66928;DHT22;59882;45.624;11.698;2023-01-04T01:06:55;8.00;83.60
66928;DHT22;59882;45.624;11.698;2023-01-04T01:09:22;8.00;83.80
66928;DHT22;59882;45.624;11.698;2023-01-04T01:11:47;7.90;83.90
66928;DHT22;59882;45.624;11.698;2023-01-04T01:14:16;7.90;84.10
66928;DHT22;59882;45.624;11.698;2023-01-04T01:16:42;7.90;84.10
66928;DHT22;59882;45.624;11.698;2023-01-04T01:19:08;7.90;83.90
66928;DHT22;59882;45.624;11.698;2023-01-04T01:21:33;7.80;83.80
66928;DHT22;59882;45.624;11.698;2023-01-04T01:23:59;7.80;83.90
66928;DHT22;59882;45.624;11.698;2023-01-04T01:26:25;7.80;83.80
66928;DHT22;59882;45.624;11.698;2023-01-04T01:28:51;7.70;84.00
66928;DHT22;59882;45.624;11.698;2023-01-04T01:31:25;7.70;84.30
66928;DHT22;59882;45.624;11.698;2023-01-04T01:33:53;7.70;84.70
66928;DHT22;59882;45.624;11.698;2023-01-04T01:36:20;7.60;84.60
66928;DHT22;59882;45.624;11.698;2023-01-04T01:38:47;7.70;84.50
66928;DHT22;59882;45.624;11.698;2023-01-04T01:41:38;7.60;84.40
66928;DHT22;59882;45.624;11.698;2023-01-04T01:47:19;7.60;84.40
66928;DHT22;59882;45.624;11.698;2023-01-04T01:49:47;7.60;84.30
66928;DHT22;59882;45.624;11.698;2023-01-04T01:52:17;7.50;84.40
66928;DHT22;59882;45.624;11.698;2023-01-04T01:54:48;7.60;84.50
66928;DHT22;59882;45.624;11.698;2023-01-04T01:57:20;7.50;84.40
66928;DHT22;59882;45.624;11.698;2023-01-04T01:59:48;7.60;84.30
66928;DHT22;59882;45.624;11.698;2023-01-04T02:02:15;7.50;84.40
66928;DHT22;59882;45.624;11.698;2023-01-04T02:04:46;7.50;84.40
66928;DHT22;59882;45.624;11.698;2023-01-04T02:07:15;7.50;84.50
66928;DHT22;59882;45.624;11.698;2023-01-04T02:09:41;7.60;84.60
66928;DHT22;59882;45.624;11.698;2023-01-04T02:12:12;7.60;84.60
66928;DHT22;59882;45.624;11.698;2023-01-04T02:14:39;7.60;84.60
66928;DHT22;59882;45.624;11.698;2023-01-04T02:17:20;7.60;84.60
66928;DHT22;59882;45.624;11.698;2023-01-04T02:31:18;7.60;84.10
66928;DHT22;59882;45.624;11.698;2023-01-04T02:39:12;7.50;84.40
66928;DHT22;59882;45.624;11.698;2023-01-04T02:41:56;7.50;84.30
66928;DHT22;59882;45.624;11.698;2023-01-04T02:44:42;7.50;84.30
66928;DHT22;59882;45.624;11.698;2023-01-04T02:53:27;7.50;83.90
66928;DHT22;59882;45.624;11.698;2023-01-04T02:59:05;7.40;83.90
66928;DHT22;59882;45.624;11.698;2023-01-04T03:04:47;7.40;83.80
66928;DHT22;59882;45.624;11.698;2023-01-04T03:10:44;7.40;83.80
66928;DHT22;59882;45.624;11.698;2023-01-04T03:13:24;7.30;83.70
66928;DHT22;59882;45.624;11.698;2023-01-04T03:16:04;7.30;83.90
66928;DHT22;59882;45.624;11.698;2023-01-04T03:18:41;7.30;83.50
66928;DHT22;59882;45.624;11.698;2023-01-04T03:21:11;7.30;83.40
66928;DHT22;59882;45.624;11.698;2023-01-04T03:23:38;7.30;83.50
66928;DHT22;59882;45.624;11.698;2023-01-04T03:26:27;7.30;83.30
66928;DHT22;59882;45.624;11.698;2023-01-04T03:29:39;7.20;83.30
66928;DHT22;59882;45.624;11.698;2023-01-04T03:36:17;7.20;83.50
66928;DHT22;59882;45.624;11.698;2023-01-04T03:38:51;7.10;83.40
66928;DHT22;59882;45.624;11.698;2023-01-04T03:47:36;7.10;83.70
66928;DHT22;59882;45.624;11.698;2023-01-04T03:50:28;7.10;83.60
66928;DHT22;59882;45.624;11.698;2023-01-04T03:52:55;7.10;83.50
66928;DHT22;59882;45.624;11.698;2023-01-04T03:55:24;7.10;83.80
66928;DHT22;59882;45.624;11.698;2023-01-04T03:57:52;7.10;84.00
66928;DHT22;59882;45.624;11.698;2023-01-04T04:00:18;7.00;84.10
66928;DHT22;59882;45.624;11.698;2023-01-04T04:02:46;7.00;84.20
66928;DHT22;59882;45.624;11.698;2023-01-04T04:05:17;7.00;84.30
66928;DHT22;59882;45.624;11.698;2023-01-04T04:08:01;7.00;84.30
66928;DHT22;59882;45.624;11.698;2023-01-04T04:10:45;7.00;84.20
66928;DHT22;59882;45.624;11.698;2023-01-04T04:13:11;7.00;84.00
66928;DHT22;59882;45.624;11.698;2023-01-04T04:15:36;7.00;84.00
66928;DHT22;59882;45.624;11.698;2023-01-04T04:18:02;7.00;84.00
66928;DHT22;59882;45.624;11.698;2023-01-04T04:20:28;6.90;84.00
66928;DHT22;59882;45.624;11.698;2023-01-04T04:22:53;6.90;83.80
66928;DHT22;59882;45.624;11.698;2023-01-04T04:25:19;6.90;83.90
66928;DHT22;59882;45.624;11.698;2023-01-04T04:27:45;6.90;84.00
66928;DHT22;59882;45.624;11.698;2023-01-04T04:30:10;6.80;83.90
66928;DHT22;59882;45.624;11.698;2023-01-04T04:32:36;6.90;83.40
66928;DHT22;59882;45.624;11.698;2023-01-04T04:35:02;6.80;83.40
66928;DHT22;59882;45.624;11.698;2023-01-04T04:37:27;6.80;83.60
66928;DHT22;59882;45.624;11.698;2023-01-04T04:40:00;6.80;83.60
66928;DHT22;59882;45.624;11.698;2023-01-04T04:42:26;6.80;83.70
66928;DHT22;59882;45.624;11.698;2023-01-04T04:44:51;6.70;83.50
66928;DHT22;59882;45.624;11.698;2023-01-04T04:47:17;6.70;83.40
66928;DHT22;59882;45.624;11.698;2023-01-04T04:49:42;6.60;83.60
66928;DHT22;59882;45.624;11.698;2023-01-04T04:52:08;6.60;83.70
66928;DHT22;59882;45.624;11.698;2023-01-04T04:54:34;6.60;83.70
66928;DHT22;59882;45.624;11.698;2023-01-04T04:56:59;6.50;83.70
66928;DHT22;59882;45.624;11.698;2023-01-04T04:59:25;6.50;83.70
66928;DHT22;59882;45.624;11.698;2023-01-04T05:01:50;6.40;83.90
66928;DHT22;59882;45.624;11.698;2023-01-04T05:04:16;6.30;84.10
66928;DHT22;59882;45.624;11.698;2023-01-04T05:06:44;6.30;84.40
66928;DHT22;59882;45.624;11.698;2023-01-04T05:09:12;6.30;84.30
66928;DHT22;59882;45.624;11.698;2023-01-04T05:11:38;6.30;84.40
66928;DHT22;59882;45.624;11.698;2023-01-04T05:14:22;6.30;84.50
66928;DHT22;59882;45.624;11.698;2023-01-04T05:16:47;6.30;85.10
66928;DHT22;59882;45.624;11.698;2023-01-04T05:19:13;6.30;85.50
66928;DHT22;59882;45.624;11.698;2023-01-04T05:21:39;6.20;85.70
66928;DHT22;59882;45.624;11.698;2023-01-04T05:24:06;6.20;85.80
66928;DHT22;59882;45.624;11.698;2023-01-04T05:26:32;6.20;85.60
66928;DHT22;59882;45.624;11.698;2023-01-04T05:28:57;6.20;85.50
66928;DHT22;59882;45.624;11.698;2023-01-04T05:31:24;6.20;85.50
66928;DHT22;59882;45.624;11.698;2023-01-04T05:33:50;6.20;85.40
66928;DHT22;59882;45.624;11.698;2023-01-04T05:36:16;6.20;85.30
66928;DHT22;59882;45.624;11.698;2023-01-04T05:38:41;6.20;85.30
66928;DHT22;59882;45.624;11.698;2023-01-04T05:41:07;6.20;85.10
66928;DHT22;59882;45.624;11.698;2023-01-04T05:43:53;6.20;84.90
66928;DHT22;59882;45.624;11.698;2023-01-04T05:46:18;6.20;84.90
66928;DHT22;59882;45.624;11.698;2023-01-04T05:48:44;6.20;84.90
66928;DHT22;59882;45.624;11.698;2023-01-04T05:51:09;6.10;84.50
66928;DHT22;59882;45.624;11.698;2023-01-04T05:53:35;6.10;84.60
66928;DHT22;59882;45.624;11.698;2023-01-04T05:56:01;6.10;83.70
66928;DHT22;59882;45.624;11.698;2023-01-04T05:58:26;6.10;83.80
66928;DHT22;59882;45.624;11.698;2023-01-04T06:00:53;6.00;83.80
66928;DHT22;59882;45.624;11.698;2023-01-04T06:03:19;6.00;83.80
66928;DHT22;59882;45.624;11.698;2023-01-04T06:05:49;5.90;83.90
66928;DHT22;59882;45.624;11.698;2023-01-04T06:08:14;5.90;83.90
66928;DHT22;59882;45.624;11.698;2023-01-04T06:10:40;5.90;83.90
66928;DHT22;59882;45.624;11.698;2023-01-04T06:13:06;5.90;84.10
66928;DHT22;59882;45.624;11.698;2023-01-04T06:15:31;5.90;84.10
66928;DHT22;59882;45.624;11.698;2023-01-04T06:17:57;5.90;84.20
66928;DHT22;59882;45.624;11.698;2023-01-04T06:20:22;5.80;84.20
66928;DHT22;59882;45.624;11.698;2023-01-04T06:22:48;5.80;84.30
66928;DHT22;59882;45.624;11.698;2023-01-04T06:25:14;5.80;84.30
66928;DHT22;59882;45.624;11.698;2023-01-04T06:27:39;5.80;84.40
66928;DHT22;59882;45.624;11.698;2023-01-04T06:30:05;5.80;84.40
66928;DHT22;59882;45.624;11.698;2023-01-04T06:32:31;5.80;84.40
66928;DHT22;59882;45.624;11.698;2023-01-04T06:34:57;5.80;84.40
66928;DHT22;59882;45.624;11.698;2023-01-04T06:37:22;5.80;84.40
66928;DHT22;59882;45.624;11.698;2023-01-04T06:39:48;5.80;84.40
66928;DHT22;59882;45.624;11.698;2023-01-04T06:42:14;5.80;84.40
66928;DHT22;59882;45.624;11.698;2023-01-04T06:44:58;5.80;84.30
66928;DHT22;59882;45.624;11.698;2023-01-04T06:47:23;5.80;84.30
66928;DHT22;59882;45.624;11.698;2023-01-04T06:49:49;5.80;84.40
66928;DHT22;59882;45.624;11.698;2023-01-04T06:52:14;5.80;84.50
66928;DHT22;59882;45.624;11.698;2023-01-04T06:54:40;5.80;84.60
66928;DHT22;59882;45.624;11.698;2023-01-04T06:57:05;5.90;84.50
66928;DHT22;59882;45.624;11.698;2023-01-04T06:59:31;5.90;84.40
66928;DHT22;59882;45.624;11.698;2023-01-04T07:01:56;5.90;84.50
66928;DHT22;59882;45.624;11.698;2023-01-04T07:04:22;5.90;84.60
66928;DHT22;59882;45.624;11.698;2023-01-04T07:06:48;5.90;84.50
66928;DHT22;59882;45.624;11.698;2023-01-04T07:09:13;6.00;84.50
66928;DHT22;59882;45.624;11.698;2023-01-04T07:11:39;6.00;84.50
66928;DHT22;59882;45.624;11.698;2023-01-04T07:14:04;6.00;84.50
66928;DHT22;59882;45.624;11.698;2023-01-04T07:16:30;6.00;84.50
66928;DHT22;59882;45.624;11.698;2023-01-04T07:18:55;6.00;84.50
66928;DHT22;59882;45.624;11.698;2023-01-04T07:21:21;6.10;84.50
66928;DHT22;59882;45.624;11.698;2023-01-04T07:23:47;6.10;84.40
66928;DHT22;59882;45.624;11.698;2023-01-04T07:26:13;6.10;84.40
66928;DHT22;59882;45.624;11.698;2023-01-04T07:28:38;6.10;84.30
66928;DHT22;59882;45.624;11.698;2023-01-04T07:31:22;6.00;83.50
66928;DHT22;59882;45.624;11.698;2023-01-04T07:33:48;6.00;83.70
66928;DHT22;59882;45.624;11.698;2023-01-04T07:36:15;5.90;83.60
66928;DHT22;59882;45.624;11.698;2023-01-04T07:38:41;6.00;83.90
66928;DHT22;59882;45.624;11.698;2023-01-04T07:41:08;5.90;83.70
66928;DHT22;59882;45.624;11.698;2023-01-04T07:43:33;6.00;83.80
66928;DHT22;59882;45.624;11.698;2023-01-04T07:45:59;5.90;83.80
66928;DHT22;59882;45.624;11.698;2023-01-04T07:48:25;6.00;83.50
66928;DHT22;59882;45.624;11.698;2023-01-04T07:50:54;5.90;83.50
66928;DHT22;59882;45.624;11.698;2023-01-04T07:53:19;5.90;83.50
66928;DHT22;59882;45.624;11.698;2023-01-04T07:55:45;5.80;83.70
66928;DHT22;59882;45.624;11.698;2023-01-04T07:58:10;5.90;84.00
66928;DHT22;59882;45.624;11.698;2023-01-04T08:00:36;5.90;84.30
66928;DHT22;59882;45.624;11.698;2023-01-04T08:03:02;5.80;84.30
66928;DHT22;59882;45.624;11.698;2023-01-04T08:05:31;5.80;84.40
66928;DHT22;59882;45.624;11.698;2023-01-04T08:07:56;5.90;84.40
66928;DHT22;59882;45.624;11.698;2023-01-04T08:10:22;5.90;84.70
66928;DHT22;59882;45.624;11.698;2023-01-04T08:12:47;5.90;84.70
66928;DHT22;59882;45.624;11.698;2023-01-04T08:15:13;5.90;84.90
66928;DHT22;59882;45.624;11.698;2023-01-04T08:17:39;5.90;85.10
66928;DHT22;59882;45.624;11.698;2023-01-04T08:20:06;5.90;85.20
66928;DHT22;59882;45.624;11.698;2023-01-04T08:22:31;6.00;85.30
66928;DHT22;59882;45.624;11.698;2023-01-04T08:24:57;6.10;85.30
66928;DHT22;59882;45.624;11.698;2023-01-04T08:27:23;6.10;85.50
66928;DHT22;59882;45.624;11.698;2023-01-04T08:29:48;6.20;85.60
66928;DHT22;59882;45.624;11.698;2023-01-04T08:32:14;6.20;85.90
66928;DHT22;59882;45.624;11.698;2023-01-04T08:34:40;6.30;85.80
66928;DHT22;59882;45.624;11.698;2023-01-04T08:37:05;6.30;85.80
66928;DHT22;59882;45.624;11.698;2023-01-04T08:39:31;6.40;85.90
66928;DHT22;59882;45.624;11.698;2023-01-04T08:42:00;6.50;86.00
66928;DHT22;59882;45.624;11.698;2023-01-04T08:44:27;6.50;85.90
66928;DHT22;59882;45.624;11.698;2023-01-04T08:46:53;6.60;85.80
66928;DHT22;59882;45.624;11.698;2023-01-04T08:49:20;6.70;86.20
66928;DHT22;59882;45.624;11.698;2023-01-04T08:51:46;6.70;86.10
66928;DHT22;59882;45.624;11.698;2023-01-04T08:54:12;6.80;86.40
66928;DHT22;59882;45.624;11.698;2023-01-04T08:56:38;6.80;86.50
66928;DHT22;59882;45.624;11.698;2023-01-04T08:59:05;6.90;86.80
66928;DHT22;59882;45.624;11.698;2023-01-04T09:01:31;6.90;86.70
66928;DHT22;59882;45.624;11.698;2023-01-04T09:03:57;7.00;86.90
66928;DHT22;59882;45.624;11.698;2023-01-04T09:06:23;7.00;86.90
66928;DHT22;59882;45.624;11.698;2023-01-04T09:08:49;7.00;87.10
66928;DHT22;59882;45.624;11.698;2023-01-04T09:11:18;7.10;87.00
66928;DHT22;59882;45.624;11.698;2023-01-04T09:13:45;7.10;87.20
66928;DHT22;59882;45.624;11.698;2023-01-04T09:16:16;7.10;87.10
66928;DHT22;59882;45.624;11.698;2023-01-04T09:18:42;7.20;87.10
66928;DHT22;59882;45.624;11.698;2023-01-04T09:21:16;7.30;87.00
66928;DHT22;59882;45.624;11.698;2023-01-04T09:23:42;7.30;87.00
66928;DHT22;59882;45.624;11.698;2023-01-04T09:26:20;7.40;87.10
66928;DHT22;59882;45.624;11.698;2023-01-04T09:28:54;7.50;87.10
66928;DHT22;59882;45.624;11.698;2023-01-04T09:31:22;7.50;87.00
66928;DHT22;59882;45.624;11.698;2023-01-04T09:33:48;7.60;87.10
66928;DHT22;59882;45.624;11.698;2023-01-04T09:36:16;7.70;87.10
66928;DHT22;59882;45.624;11.698;2023-01-04T09:38:42;7.80;87.30
66928;DHT22;59882;45.624;11.698;2023-01-04T09:41:27;7.90;87.60
66928;DHT22;59882;45.624;11.698;2023-01-04T09:43:55;7.90;88.20
66928;DHT22;59882;45.624;11.698;2023-01-04T09:46:47;8.00;88.50
66928;DHT22;59882;45.624;11.698;2023-01-04T09:49:34;8.10;88.40
66928;DHT22;59882;45.624;11.698;2023-01-04T09:54:53;8.30;88.40
66928;DHT22;59882;45.624;11.698;2023-01-04T09:57:21;8.40;88.70
66928;DHT22;59882;45.624;11.698;2023-01-04T09:59:53;8.50;88.70
66928;DHT22;59882;45.624;11.698;2023-01-04T10:02:24;8.60;88.50
66928;DHT22;59882;45.624;11.698;2023-01-04T10:04:51;8.70;88.20
66928;DHT22;59882;45.624;11.698;2023-01-04T10:07:29;8.70;88.10
66928;DHT22;59882;45.624;11.698;2023-01-04T10:09:56;8.80;87.60
66928;DHT22;59882;45.624;11.698;2023-01-04T10:17:53;9.10;87.50
66928;DHT22;59882;45.624;11.698;2023-01-04T10:28:24;9.40;86.30
66928;DHT22;59882;45.624;11.698;2023-01-04T10:31:14;9.50;85.90
66928;DHT22;59882;45.624;11.698;2023-01-04T10:33:49;9.60;85.40
66928;DHT22;59882;45.624;11.698;2023-01-04T10:36:21;9.60;85.50
66928;DHT22;59882;45.624;11.698;2023-01-04T10:38:57;9.80;85.30
66928;DHT22;59882;45.624;11.698;2023-01-04T10:41:24;9.80;84.90
66928;DHT22;59882;45.624;11.698;2023-01-04T10:44:11;9.90;84.20
66928;DHT22;59882;45.624;11.698;2023-01-04T10:46:50;9.90;83.90
66928;DHT22;59882;45.624;11.698;2023-01-04T10:49:43;10.00;83.60
66928;DHT22;59882;45.624;11.698;2023-01-04T10:52:35;10.10;82.90
66928;DHT22;59882;45.624;11.698;2023-01-04T10:55:03;10.20;82.70
66928;DHT22;59882;45.624;11.698;2023-01-04T10:58:02;10.30;83.10
66928;DHT22;59882;45.624;11.698;2023-01-04T11:00:43;10.30;81.90
66928;DHT22;59882;45.624;11.698;2023-01-04T11:03:15;10.40;81.80
66928;DHT22;59882;45.624;11.698;2023-01-04T11:05:59;10.50;82.00
66928;DHT22;59882;45.624;11.698;2023-01-04T11:08:37;10.60;81.60
66928;DHT22;59882;45.624;11.698;2023-01-04T11:11:15;10.70;82.20
66928;DHT22;59882;45.624;11.698;2023-01-04T11:13:43;10.70;82.20
66928;DHT22;59882;45.624;11.698;2023-01-04T11:16:09;10.80;82.00
66928;DHT22;59882;45.624;11.698;2023-01-04T11:18:36;10.80;81.00
66928;DHT22;59882;45.624;11.698;2023-01-04T11:21:06;10.90;81.40
66928;DHT22;59882;45.624;11.698;2023-01-04T11:23:33;11.00;81.60
66928;DHT22;59882;45.624;11.698;2023-01-04T11:26:13;11.00;80.40
66928;DHT22;59882;45.624;11.698;2023-01-04T11:28:52;11.10;80.90
66928;DHT22;59882;45.624;11.698;2023-01-04T11:31:26;11.20;80.60
66928;DHT22;59882;45.624;11.698;2023-01-04T11:36:35;11.30;80.40
66928;DHT22;59882;45.624;11.698;2023-01-04T11:39:03;11.30;80.40
66928;DHT22;59882;45.624;11.698;2023-01-04T11:41:29;11.40;79.40
66928;DHT22;59882;45.624;11.698;2023-01-04T11:46:23;11.60;79.40
66928;DHT22;59882;45.624;11.698;2023-01-04T11:48:50;11.70;79.40
66928;DHT22;59882;45.624;11.698;2023-01-04T11:56:28;11.90;80.50
66928;DHT22;59882;45.624;11.698;2023-01-04T11:59:14;12.00;80.70
66928;DHT22;59882;45.624;11.698;2023-01-04T12:01:45;12.20;80.70
66928;DHT22;59882;45.624;11.698;2023-01-04T12:04:23;12.20;80.30
66928;DHT22;59882;45.624;11.698;2023-01-04T12:09:22;12.50;81.30
66928;DHT22;59882;45.624;11.698;2023-01-04T12:11:52;12.60;81.30
66928;DHT22;59882;45.624;11.698;2023-01-04T12:17:00;14.30;77.00
66928;DHT22;59882;45.624;11.698;2023-01-04T12:19:27;16.10;73.10
66928;DHT22;59882;45.624;11.698;2023-01-04T12:22:00;18.00;74.30
66928;DHT22;59882;45.624;11.698;2023-01-04T12:24:31;19.70;62.00
66928;DHT22;59882;45.624;11.698;2023-01-04T12:26:58;21.00;60.20
66928;DHT22;59882;45.624;11.698;2023-01-04T12:34:44;24.90;52.70
66928;DHT22;59882;45.624;11.698;2023-01-04T12:40:01;26.40;45.50
66928;DHT22;59882;45.624;11.698;2023-01-04T12:42:27;27.00;41.40
66928;DHT22;59882;45.624;11.698;2023-01-04T12:50:20;27.90;39.10
66928;DHT22;59882;45.624;11.698;2023-01-04T12:53:07;28.00;38.90
66928;DHT22;59882;45.624;11.698;2023-01-04T13:05:58;28.20;36.70
66928;DHT22;59882;45.624;11.698;2023-01-04T13:08:25;27.90;37.10
66928;DHT22;59882;45.624;11.698;2023-01-04T13:10:55;27.70;37.20
66928;DHT22;59882;45.624;11.698;2023-01-04T13:13:42;27.30;35.90
66928;DHT22;59882;45.624;11.698;2023-01-04T13:19:02;26.10;38.60
66928;DHT22;59882;45.624;11.698;2023-01-04T13:21:45;25.00;40.10
66928;DHT22;59882;45.624;11.698;2023-01-04T13:24:30;23.70;41.60
66928;DHT22;59882;45.624;11.698;2023-01-04T13:27:03;22.50;43.80
66928;DHT22;59882;45.624;11.698;2023-01-04T13:29:32;21.50;45.80
66928;DHT22;59882;45.624;11.698;2023-01-04T13:35:11;19.60;50.10
66928;DHT22;59882;45.624;11.698;2023-01-04T13:37:48;18.90;51.80
66928;DHT22;59882;45.624;11.698;2023-01-04T13:40:27;18.20;53.20
66928;DHT22;59882;45.624;11.698;2023-01-04T13:48:14;16.40;58.80
66928;DHT22;59882;45.624;11.698;2023-01-04T13:50:43;15.90;60.60
66928;DHT22;59882;45.624;11.698;2023-01-04T13:53:21;15.50;61.40
66928;DHT22;59882;45.624;11.698;2023-01-04T13:55:56;15.10;63.20
66928;DHT22;59882;45.624;11.698;2023-01-04T13:58:30;14.80;63.60
66928;DHT22;59882;45.624;11.698;2023-01-04T14:08:38;14.00;68.60
66928;DHT22;59882;45.624;11.698;2023-01-04T14:11:18;13.90;69.50
66928;DHT22;59882;45.624;11.698;2023-01-04T14:14:19;13.60;69.50
66928;DHT22;59882;45.624;11.698;2023-01-04T14:16:47;13.50;70.50
66928;DHT22;59882;45.624;11.698;2023-01-04T14:19:52;13.30;70.80
66928;DHT22;59882;45.624;11.698;2023-01-04T14:22:37;13.20;71.70
66928;DHT22;59882;45.624;11.698;2023-01-04T14:25:30;12.90;71.90
66928;DHT22;59882;45.624;11.698;2023-01-04T14:33:43;12.60;74.60
66928;DHT22;59882;45.624;11.698;2023-01-04T14:36:18;12.60;74.40
66928;DHT22;59882;45.624;11.698;2023-01-04T14:41:22;12.40;75.00
66928;DHT22;59882;45.624;11.698;2023-01-04T14:43:49;12.40;75.50
66928;DHT22;59882;45.624;11.698;2023-01-04T14:46:18;12.30;75.50
66928;DHT22;59882;45.624;11.698;2023-01-04T14:48:44;12.30;76.20
66928;DHT22;59882;45.624;11.698;2023-01-04T14:51:16;12.20;75.70
66928;DHT22;59882;45.624;11.698;2023-01-04T14:53:43;12.20;75.90
66928;DHT22;59882;45.624;11.698;2023-01-04T14:56:14;12.10;77.40
66928;DHT22;59882;45.624;11.698;2023-01-04T14:58:41;12.10;77.50
66928;DHT22;59882;45.624;11.698;2023-01-04T15:01:07;12.00;76.80
66928;DHT22;59882;45.624;11.698;2023-01-04T15:03:33;12.00;77.30
66928;DHT22;59882;45.624;11.698;2023-01-04T15:05:59;11.90;77.90
66928;DHT22;59882;45.624;11.698;2023-01-04T15:08:24;11.90;78.50
66928;DHT22;59882;45.624;11.698;2023-01-04T15:10:50;11.80;78.50
66928;DHT22;59882;45.624;11.698;2023-01-04T15:13:15;11.80;79.60
66928;DHT22;59882;45.624;11.698;2023-01-04T15:15:41;11.80;79.00
66928;DHT22;59882;45.624;11.698;2023-01-04T15:18:07;11.70;79.90
66928;DHT22;59882;45.624;11.698;2023-01-04T15:20:37;11.60;80.00
66928;DHT22;59882;45.624;11.698;2023-01-04T15:23:03;11.60;79.50
66928;DHT22;59882;45.624;11.698;2023-01-04T15:25:28;11.50;80.50
66928;DHT22;59882;45.624;11.698;2023-01-04T15:27:54;11.50;80.30
66928;DHT22;59882;45.624;11.698;2023-01-04T15:30:20;11.40;80.20
66928;DHT22;59882;45.624;11.698;2023-01-04T15:32:46;11.40;80.30
66928;DHT22;59882;45.624;11.698;2023-01-04T15:35:12;11.30;80.40
66928;DHT22;59882;45.624;11.698;2023-01-04T15:37:41;11.30;81.20
66928;DHT22;59882;45.624;11.698;2023-01-04T15:40:07;11.30;81.20
66928;DHT22;59882;45.624;11.698;2023-01-04T15:42:33;11.30;80.90
66928;DHT22;59882;45.624;11.698;2023-01-04T15:45:17;11.20;81.70
66928;DHT22;59882;45.624;11.698;2023-01-04T15:47:44;11.20;81.20
66928;DHT22;59882;45.624;11.698;2023-01-04T15:50:10;11.20;81.80
66928;DHT22;59882;45.624;11.698;2023-01-04T15:52:35;11.10;82.10
66928;DHT22;59882;45.624;11.698;2023-01-04T15:55:01;11.10;82.10
66928;DHT22;59882;45.624;11.698;2023-01-04T15:57:26;11.00;82.00
66928;DHT22;59882;45.624;11.698;2023-01-04T15:59:52;10.90;82.30
66928;DHT22;59882;45.624;11.698;2023-01-04T16:02:18;10.90;82.10
66928;DHT22;59882;45.624;11.698;2023-01-04T16:04:43;10.90;82.30
66928;DHT22;59882;45.624;11.698;2023-01-04T16:07:10;10.90;82.60
66928;DHT22;59882;45.624;11.698;2023-01-04T16:09:35;10.80;82.70
66928;DHT22;59882;45.624;11.698;2023-01-04T16:12:02;10.80;82.20
66928;DHT22;59882;45.624;11.698;2023-01-04T16:14:46;10.80;83.00
66928;DHT22;59882;45.624;11.698;2023-01-04T16:17:12;10.70;83.00
66928;DHT22;59882;45.624;11.698;2023-01-04T16:19:38;10.80;82.70
66928;DHT22;59882;45.624;11.698;2023-01-04T16:22:03;10.70;82.80
66928;DHT22;59882;45.624;11.698;2023-01-04T16:24:29;10.70;83.10
66928;DHT22;59882;45.624;11.698;2023-01-04T16:26:54;10.60;83.10
66928;DHT22;59882;45.624;11.698;2023-01-04T16:29:20;10.60;83.30
66928;DHT22;59882;45.624;11.698;2023-01-04T16:31:46;10.60;82.80
66928;DHT22;59882;45.624;11.698;2023-01-04T16:34:12;10.50;82.90
66928;DHT22;59882;45.624;11.698;2023-01-04T16:36:38;10.50;83.20
66928;DHT22;59882;45.624;11.698;2023-01-04T16:39:04;10.50;83.10
66928;DHT22;59882;45.624;11.698;2023-01-04T16:41:30;10.40;83.40
66928;DHT22;59882;45.624;11.698;2023-01-04T16:43:56;10.40;83.40
66928;DHT22;59882;45.624;11.698;2023-01-04T16:46:30;10.40;83.40
66928;DHT22;59882;45.624;11.698;2023-01-04T16:49:05;10.30;83.30
66928;DHT22;59882;45.624;11.698;2023-01-04T16:51:32;10.30;83.00
66928;DHT22;59882;45.624;11.698;2023-01-04T16:54:01;10.30;83.10
66928;DHT22;59882;45.624;11.698;2023-01-04T16:56:27;10.30;82.80
66928;DHT22;59882;45.624;11.698;2023-01-04T16:58:53;10.20;83.10
66928;DHT22;59882;45.624;11.698;2023-01-04T17:01:28;10.20;82.70
66928;DHT22;59882;45.624;11.698;2023-01-04T17:03:58;10.10;82.70
66928;DHT22;59882;45.624;11.698;2023-01-04T17:06:26;10.10;82.70
66928;DHT22;59882;45.624;11.698;2023-01-04T17:08:53;10.10;83.10
66928;DHT22;59882;45.624;11.698;2023-01-04T17:11:24;10.00;83.10
66928;DHT22;59882;45.624;11.698;2023-01-04T17:13:50;10.00;83.20
66928;DHT22;59882;45.624;11.698;2023-01-04T17:16:16;9.90;83.30
66928;DHT22;59882;45.624;11.698;2023-01-04T17:18:42;9.90;83.30
66928;DHT22;59882;45.624;11.698;2023-01-04T17:21:17;9.90;83.50
66928;DHT22;59882;45.624;11.698;2023-01-04T17:23:49;9.90;83.50
66928;DHT22;59882;45.624;11.698;2023-01-04T17:26:18;9.90;83.60
66928;DHT22;59882;45.624;11.698;2023-01-04T17:28:44;9.80;83.50
66928;DHT22;59882;45.624;11.698;2023-01-04T17:31:17;9.80;83.50
66928;DHT22;59882;45.624;11.698;2023-01-04T17:33:43;9.70;83.50
66928;DHT22;59882;45.624;11.698;2023-01-04T17:36:11;9.60;83.50
66928;DHT22;59882;45.624;11.698;2023-01-04T17:38:38;9.60;83.30
66928;DHT22;59882;45.624;11.698;2023-01-04T17:43:36;9.60;83.30
66928;DHT22;59882;45.624;11.698;2023-01-04T17:46:04;9.60;83.50
66928;DHT22;59882;45.624;11.698;2023-01-04T17:48:29;9.50;83.60
66928;DHT22;59882;45.624;11.698;2023-01-04T17:50:55;9.50;83.50